Time;durP1;ratioP1;P1;durP2;ratioP2;P2;SDS_P1;SDS_P2;PMS_P1;PMS_P2;Temp;Humidity;BMP_temperature;BMP_pressure;BME280_temperature;BME280_humidity;BME280_pressure;Samples;Min_cycle;Max_cycle;Signal;HPM_P1;HPM_P2
2023/12/12 00:00:29;;;;;;;10.45;1.88;;;9.10;99.90;;;;;;5012050;28;20565;-76
2023/12/12 00:02:59;;;;;;;3.47;0.95;;;9.10;99.90;;;;;;5012905;28;20045;-76
2023/12/12 00:05:25;;;;;;;5.55;1.02;;;9.20;99.90;;;;;;5010791;28;20029;-76
2023/12/12 00:07:51;;;;;;;10.80;1.63;;;9.20;99.90;;;;;;5017160;28;20060;-76
2023/12/12 00:10:17;;;;;;;16.85;2.13;;;9.20;99.90;;;;;;5029295;28;20072;-76
2023/12/12 00:12:44;;;;;;;7.25;1.58;;;9.30;99.90;;;;;;5010049;28;20426;-76
2023/12/12 00:15:10;;;;;;;6.80;1.90;;;9.30;99.90;;;;;;5013691;28;20021;-77
2023/12/12 00:17:39;;;;;;;11.23;1.50;;;9.10;99.90;;;;;;5011617;28;20038;-76
2023/12/12 00:20:09;;;;;;;9.57;2.45;;;8.90;99.90;;;;;;5021136;28;20030;-76
2023/12/12 00:22:38;;;;;;;9.05;2.28;;;8.80;99.90;;;;;;5020398;28;20116;-76
2023/12/12 00:25:04;;;;;;;14.18;1.98;;;8.60;99.90;;;;;;5033616;28;20104;-76
2023/12/12 00:27:30;;;;;;;5.63;1.40;;;8.50;99.90;;;;;;5016236;28;20120;-76
2023/12/12 00:29:56;;;;;;;9.27;2.50;;;8.50;99.90;;;;;;5032666;28;20025;-76
2023/12/12 00:32:21;;;;;;;14.38;1.48;;;8.50;99.90;;;;;;5012916;28;20207;-76
2023/12/12 00:34:47;;;;;;;13.75;2.20;;;8.40;99.90;;;;;;5033066;28;20092;-76
2023/12/12 00:37:13;;;;;;;10.70;1.70;;;8.30;99.90;;;;;;5033120;28;20030;-76
2023/12/12 00:39:40;;;;;;;8.73;2.00;;;8.30;99.90;;;;;;5038008;28;20033;-76
2023/12/12 00:42:06;;;;;;;8.25;1.80;;;8.30;99.90;;;;;;5017608;28;20486;-76
2023/12/12 00:44:34;;;;;;;11.18;1.75;;;8.20;99.90;;;;;;5010837;28;20561;-76
2023/12/12 00:47:00;;;;;;;11.68;1.50;;;8.20;99.90;;;;;;5030339;28;20022;-76
2023/12/12 00:49:26;;;;;;;7.38;1.38;;;8.20;99.90;;;;;;5033613;28;20022;-76
2023/12/12 00:51:52;;;;;;;7.50;1.55;;;8.20;99.90;;;;;;5012918;28;20029;-75
2023/12/12 00:54:18;;;;;;;1.90;0.95;;;8.20;99.90;;;;;;5032990;28;20038;-75
2023/12/12 00:56:49;;;;;;;5.32;1.02;;;8.20;99.90;;;;;;5049041;28;20037;-75
2023/12/12 00:59:15;;;;;;;;;;;8.20;99.90;;;;;;5033984;28;20587;-75
2023/12/12 01:01:41;;;;;;;2.50;0.80;;;8.20;99.90;;;;;;5026583;28;20000;-75
2023/12/12 01:04:09;;;;;;;9.52;1.55;;;8.20;99.90;;;;;;5020602;28;20030;-75
2023/12/12 01:06:35;;;;;;;11.68;1.00;;;8.20;99.90;;;;;;5001278;28;20045;-75
2023/12/12 01:09:00;;;;;;;7.18;3.22;;;8.20;99.90;;;;;;5015476;28;20037;-75
2023/12/12 01:11:26;;;;;;;5.03;1.55;;;8.20;99.90;;;;;;5023807;28;20462;-75
2023/12/12 01:13:52;;;;;;;4.45;1.48;;;8.20;99.90;;;;;;5025268;28;20074;-75
2023/12/12 01:16:18;;;;;;;11.23;1.42;;;8.10;99.90;;;;;;5029102;28;20063;-75
2023/12/12 01:18:43;;;;;;;10.63;1.58;;;8.20;99.90;;;;;;5032428;28;20029;-75
2023/12/12 01:21:09;;;;;;;11.40;1.67;;;8.10;99.90;;;;;;5031903;28;20025;-75
2023/12/12 01:23:54;;;;;;;10.95;1.33;;;8.20;99.90;;;;;;5033617;28;20402;-75
2023/12/12 01:26:21;;;;;;;14.10;2.30;;;8.20;99.90;;;;;;5048423;28;20060;-75
2023/12/12 01:28:48;;;;;;;18.00;3.25;;;8.20;99.90;;;;;;5024476;28;20040;-75
2023/12/12 01:31:15;;;;;;;16.83;1.90;;;8.20;99.90;;;;;;5023354;28;20032;-75
2023/12/12 01:33:42;;;;;;;3.80;1.63;;;8.10;99.90;;;;;;5029433;28;20041;-76
2023/12/12 01:36:08;;;;;;;8.82;2.33;;;8.10;99.90;;;;;;5023592;28;20034;-75
2023/12/12 01:38:35;;;;;;;4.05;1.52;;;8.10;99.90;;;;;;5046346;28;20048;-75
2023/12/12 01:41:01;;;;;;;9.00;1.83;;;8.10;99.90;;;;;;4997225;28;20026;-76
2023/12/12 01:43:29;;;;;;;5.57;1.50;;;8.10;99.90;;;;;;5030990;28;20036;-75
2023/12/12 01:45:59;;;;;;;7.90;1.83;;;8.10;99.90;;;;;;5013315;28;20045;-75
2023/12/12 01:48:26;;;;;;;7.07;2.75;;;7.90;99.90;;;;;;5047536;28;20029;-75
2023/12/12 01:50:53;;;;;;;5.05;1.27;;;7.60;99.90;;;;;;5035839;28;20018;-75
2023/12/12 01:53:26;;;;;;;12.27;1.42;;;7.50;99.90;;;;;;5047796;28;20029;-75
2023/12/12 01:55:53;;;;;;;5.43;1.95;;;7.50;99.90;;;;;;5023922;28;20025;-76
2023/12/12 01:58:23;;;;;;;7.53;1.50;;;7.40;99.90;;;;;;5030682;28;20021;-77
2023/12/12 02:00:51;;;;;;;7.82;1.67;;;7.50;99.90;;;;;;5014362;28;20029;-76
2023/12/12 02:03:17;;;;;;;5.30;1.80;;;7.70;99.90;;;;;;5014695;28;20033;-76
2023/12/12 02:05:46;;;;;;;2.05;1.25;;;7.60;99.90;;;;;;5027906;28;20026;-76
2023/12/12 02:08:12;;;;;;;10.32;1.88;;;7.50;99.90;;;;;;5024215;28;20119;-77
2023/12/12 02:10:40;;;;;;;10.75;2.42;;;7.40;99.90;;;;;;5003006;28;20485;-76
2023/12/12 02:13:06;;;;;;;7.85;1.98;;;7.40;99.90;;;;;;5014886;28;20057;-76
2023/12/12 02:15:32;;;;;;;25.60;1.48;;;7.40;99.90;;;;;;5020550;28;20053;-76
2023/12/12 02:17:57;;;;;;;10.43;1.98;;;7.30;99.90;;;;;;5021024;28;20041;-76
2023/12/12 02:20:23;;;;;;;5.55;2.08;;;7.30;99.90;;;;;;5020080;28;20168;-77
2023/12/12 02:22:49;;;;;;;10.35;2.53;;;7.20;99.90;;;;;;5024435;28;20030;-76
2023/12/12 02:25:18;;;;;;;10.77;1.55;;;7.20;99.90;;;;;;5021414;28;20028;-76
2023/12/12 02:27:44;;;;;;;19.23;2.65;;;7.20;99.90;;;;;;5011233;28;20088;-76
2023/12/12 02:30:12;;;;;;;5.30;2.40;;;7.20;99.90;;;;;;5017249;28;20116;-76
2023/12/12 02:32:38;;;;;;;6.90;1.40;;;7.30;99.90;;;;;;5020555;28;20039;-76
2023/12/12 02:35:04;;;;;;;10.98;2.20;;;7.40;99.90;;;;;;5017878;28;20112;-76
2023/12/12 02:37:29;;;;;;;3.80;1.70;;;7.40;99.90;;;;;;5030002;28;20033;-76
2023/12/12 02:39:55;;;;;;;9.63;1.55;;;7.50;99.90;;;;;;5001039;28;20053;-76
2023/12/12 02:42:21;;;;;;;7.88;1.67;;;7.50;99.90;;;;;;5014164;28;20550;-76
2023/12/12 02:44:47;;;;;;;15.70;2.53;;;7.60;99.90;;;;;;5023529;28;20158;-77
2023/12/12 02:47:12;;;;;;;5.85;1.75;;;7.60;99.90;;;;;;5030971;28;20090;-76
2023/12/12 02:49:38;;;;;;;4.28;1.65;;;7.60;99.90;;;;;;5003465;28;20470;-76
2023/12/12 02:52:04;;;;;;;14.90;1.05;;;7.70;99.90;;;;;;5020305;28;20021;-76
2023/12/12 02:54:30;;;;;;;11.43;1.52;;;7.80;99.90;;;;;;5022385;28;20028;-76
2023/12/12 02:56:55;;;;;;;15.43;3.35;;;7.80;99.90;;;;;;5014202;28;20030;-76
2023/12/12 02:59:21;;;;;;;9.57;2.15;;;7.90;99.90;;;;;;5019303;28;20029;-76
2023/12/12 03:01:48;;;;;;;3.08;1.48;;;8.00;99.90;;;;;;5019613;28;20371;-76
2023/12/12 03:04:14;;;;;;;27.20;2.40;;;8.00;99.90;;;;;;5010580;28;20029;-76
2023/12/12 03:06:40;;;;;;;6.82;1.38;;;8.00;99.90;;;;;;5026126;28;20108;-76
2023/12/12 03:09:06;;;;;;;9.57;1.15;;;8.00;99.90;;;;;;5015551;28;20105;-76
2023/12/12 03:11:34;;;;;;;14.13;1.98;;;8.10;99.90;;;;;;5022425;28;20103;-76
2023/12/12 03:14:00;;;;;;;5.93;0.75;;;8.10;99.90;;;;;;5038552;28;20029;-76
2023/12/12 03:16:26;;;;;;;1.95;0.85;;;8.10;99.90;;;;;;5011416;28;20113;-76
2023/12/12 03:18:52;;;;;;;8.68;1.40;;;8.10;99.90;;;;;;5022495;28;20033;-76
2023/12/12 03:21:18;;;;;;;9.20;1.35;;;8.00;99.90;;;;;;5023076;28;20040;-76
2023/12/12 03:23:48;;;;;;;9.38;1.75;;;7.80;99.90;;;;;;4997372;28;20026;-76
2023/12/12 03:26:14;;;;;;;12.18;1.35;;;7.60;99.90;;;;;;5029663;28;20053;-75
2023/12/12 03:28:39;;;;;;;6.25;1.45;;;7.40;99.90;;;;;;5029242;28;20108;-76
2023/12/12 03:31:05;;;;;;;10.98;1.52;;;7.30;99.90;;;;;;5009839;28;20100;-76
2023/12/12 03:33:31;;;;;;;2.67;1.13;;;7.20;99.90;;;;;;5029889;28;20065;-75
2023/12/12 03:35:57;;;;;;;12.95;2.50;;;7.10;99.90;;;;;;5029712;28;20482;-76
2023/12/12 03:38:23;;;;;;;8.35;2.10;;;7.10;99.90;;;;;;5030063;28;20121;-76
2023/12/12 03:40:49;;;;;;;16.05;3.50;;;7.10;99.90;;;;;;5021504;28;20108;-76
2023/12/12 03:43:14;;;;;;;3.50;2.05;;;7.00;99.90;;;;;;5025426;28;20037;-76
2023/12/12 03:45:42;;;;;;;5.72;1.25;;;7.00;99.90;;;;;;5020486;28;20417;-76
2023/12/12 03:48:07;;;;;;;10.48;1.70;;;7.10;99.90;;;;;;5010852;28;20478;-75
2023/12/12 03:50:34;;;;;;;10.52;2.58;;;7.10;99.90;;;;;;5017744;28;20025;-76
2023/12/12 03:52:59;;;;;;;5.80;1.88;;;7.20;99.90;;;;;;5015411;28;20535;-76
2023/12/12 03:55:25;;;;;;;15.10;2.67;;;7.30;99.90;;;;;;5013615;28;20029;-76
2023/12/12 03:57:51;;;;;;;6.32;1.30;;;7.30;99.90;;;;;;5026556;28;20025;-76
2023/12/12 04:00:17;;;;;;;36.88;2.03;;;7.40;99.90;;;;;;5026149;28;20026;-76
2023/12/12 04:02:43;;;;;;;13.60;1.42;;;7.40;99.90;;;;;;5028633;28;20029;-75
2023/12/12 04:05:11;;;;;;;9.43;2.05;;;7.40;99.90;;;;;;5017540;28;20025;-76
2023/12/12 04:07:38;;;;;;;12.80;3.22;;;7.20;99.90;;;;;;5015110;28;20056;-75
2023/12/12 04:10:06;;;;;;;20.90;2.25;;;7.10;99.90;;;;;;5027649;28;20024;-75
2023/12/12 04:12:36;;;;;;;5.60;2.45;;;7.00;99.90;;;;;;5032566;28;20088;-75
2023/12/12 04:15:03;;;;;;;6.53;2.08;;;7.00;99.90;;;;;;5023414;28;20029;-75
2023/12/12 04:17:30;;;;;;;22.42;1.88;;;7.00;99.90;;;;;;5024495;28;20108;-75
2023/12/12 04:19:56;;;;;;;18.23;1.98;;;7.00;99.90;;;;;;5013498;28;20053;-75
2023/12/12 04:22:22;;;;;;;6.30;1.25;;;7.00;99.90;;;;;;5021810;28;20092;-76
2023/12/12 04:24:47;;;;;;;8.20;1.95;;;7.10;99.90;;;;;;5042556;28;20486;-75
2023/12/12 04:27:13;;;;;;;4.40;1.20;;;7.10;99.90;;;;;;5029804;28;20030;-76
2023/12/12 04:29:39;;;;;;;4.82;1.98;;;7.10;99.90;;;;;;5022521;28;20041;-76
2023/12/12 04:32:05;;;;;;;10.40;1.90;;;7.10;99.90;;;;;;5021565;28;20022;-75
2023/12/12 04:34:32;;;;;;;8.85;2.08;;;7.10;99.90;;;;;;4997466;28;20022;-76
2023/12/12 04:36:59;;;;;;;9.07;1.33;;;7.10;99.90;;;;;;5013159;28;20168;-77
2023/12/12 04:39:26;;;;;;;1.75;0.90;;;7.10;99.90;;;;;;5021172;28;20033;-76
2023/12/12 04:41:52;;;;;;;3.45;1.70;;;7.10;99.90;;;;;;5021615;28;20502;-75
2023/12/12 04:44:18;;;;;;;9.40;2.70;;;7.10;99.90;;;;;;5020250;28;20040;-77
2023/12/12 04:46:44;;;;;;;4.97;1.77;;;7.20;99.90;;;;;;5032607;28;20034;-77
2023/12/12 04:49:09;;;;;;;5.85;1.65;;;7.20;99.90;;;;;;5029328;28;20413;-77
2023/12/12 04:51:35;;;;;;;6.85;1.42;;;7.20;99.90;;;;;;5024152;28;20028;-76
2023/12/12 04:54:01;;;;;;;2.17;1.30;;;7.20;99.90;;;;;;5021999;28;20504;-76
2023/12/12 04:56:26;;;;;;;4.18;1.55;;;7.20;99.90;;;;;;5024225;28;20033;-76
2023/12/12 04:58:52;;;;;;;25.40;2.97;;;7.20;99.90;;;;;;5023119;28;20037;-76
2023/12/12 05:01:18;;;;;;;14.57;2.08;;;7.20;99.90;;;;;;5020858;28;20030;-76
2023/12/12 05:03:44;;;;;;;5.30;1.35;;;7.30;99.90;;;;;;5024110;28;20049;-77
2023/12/12 05:06:11;;;;;;;3.15;0.93;;;7.30;99.90;;;;;;5024421;28;20433;-76
2023/12/12 05:08:37;;;;;;;4.30;1.48;;;7.30;99.90;;;;;;5012527;28;20443;-77
2023/12/12 05:11:04;;;;;;;7.00;1.63;;;7.30;99.90;;;;;;5043574;28;20057;-76
2023/12/12 05:13:30;;;;;;;10.65;3.17;;;7.40;99.90;;;;;;5024051;28;20390;-76
2023/12/12 05:15:56;;;;;;;7.93;1.90;;;7.40;99.90;;;;;;5027008;28;20430;-76
2023/12/12 05:18:22;;;;;;;9.48;2.05;;;7.40;99.90;;;;;;5019801;28;20061;-76
2023/12/12 05:20:48;;;;;;;5.18;1.38;;;7.50;99.90;;;;;;5003775;28;20064;-76
2023/12/12 05:23:14;;;;;;;6.90;1.13;;;7.50;99.90;;;;;;5018781;28;20037;-76
2023/12/12 05:25:40;;;;;;;6.38;2.05;;;7.50;99.90;;;;;;5014809;28;20083;-76
2023/12/12 05:28:06;;;;;;;21.23;2.35;;;7.50;99.90;;;;;;5018124;28;20076;-77
2023/12/12 05:30:31;;;;;;;5.32;1.27;;;7.50;99.90;;;;;;5011773;28;20050;-76
2023/12/12 05:32:57;;;;;;;5.85;1.58;;;7.50;99.90;;;;;;5012289;28;20144;-76
2023/12/12 05:35:23;;;;;;;8.00;1.73;;;7.50;99.90;;;;;;5013046;28;20033;-76
2023/12/12 05:37:49;;;;;;;27.63;8.95;;;7.50;99.90;;;;;;5023443;28;20493;-76
2023/12/12 05:40:14;;;;;;;13.38;4.03;;;7.50;99.90;;;;;;5023398;28;20461;-76
2023/12/12 05:42:41;;;;;;;8.40;2.30;;;7.60;99.90;;;;;;5016960;28;20485;-76
2023/12/12 05:45:07;;;;;;;12.40;3.05;;;7.70;99.90;;;;;;5019240;28;20030;-76
2023/12/12 05:47:33;;;;;;;15.68;4.65;;;7.80;99.90;;;;;;5021466;28;20036;-76
2023/12/12 05:49:59;;;;;;;5.38;1.38;;;7.80;99.90;;;;;;5022979;28;20116;-76
2023/12/12 05:52:25;;;;;;;3.58;1.25;;;7.80;99.90;;;;;;5018450;28;20634;-76
2023/12/12 05:54:55;;;;;;;8.27;1.90;;;7.80;99.90;;;;;;5022444;28;20064;-76
2023/12/12 05:57:20;;;;;;;11.23;2.83;;;7.70;99.90;;;;;;5023484;28;20033;-76
2023/12/12 05:59:47;;;;;;;9.80;1.98;;;7.70;99.90;;;;;;5029067;28;20040;-77
2023/12/12 06:02:13;;;;;;;6.00;1.58;;;7.70;99.90;;;;;;5047858;28;20035;-76
2023/12/12 06:04:39;;;;;;;9.13;1.13;;;7.60;99.90;;;;;;5023424;28;20029;-76
2023/12/12 06:07:05;;;;;;;42.75;3.13;;;7.60;99.90;;;;;;5032297;28;20041;-76
2023/12/12 06:09:32;;;;;;;6.78;2.65;;;7.70;99.90;;;;;;5030347;28;20025;-75
2023/12/12 06:12:00;;;;;;;5.32;1.92;;;7.60;99.90;;;;;;5033435;28;20044;-75
2023/12/12 06:14:27;;;;;;;8.07;1.63;;;7.60;99.90;;;;;;5014374;28;20052;-77
2023/12/12 06:16:53;;;;;;;0.85;0.63;;;7.60;99.90;;;;;;5007497;28;20044;-76
2023/12/12 06:19:18;;;;;;;3.65;1.58;;;7.60;99.90;;;;;;5028123;28;20026;-76
2023/12/12 06:21:46;;;;;;;4.85;0.93;;;7.70;99.90;;;;;;5033165;28;20029;-73
2023/12/12 06:24:12;;;;;;;3.72;1.40;;;7.60;99.90;;;;;;5027948;28;20459;-75
2023/12/12 06:26:38;;;;;;;9.45;1.67;;;7.60;99.90;;;;;;5029415;28;20092;-74
2023/12/12 06:29:07;;;;;;;5.25;1.48;;;7.60;99.90;;;;;;5018430;28;20109;-74
2023/12/12 06:31:33;;;;;;;4.88;0.95;;;7.70;99.90;;;;;;5026044;28;20029;-73
2023/12/12 06:33:59;;;;;;;11.20;1.75;;;7.60;99.90;;;;;;5012184;28;20505;-74
2023/12/12 06:36:24;;;;;;;9.68;2.03;;;7.70;99.90;;;;;;5015830;28;20053;-74
2023/12/12 06:38:50;;;;;;;3.20;1.35;;;7.70;99.90;;;;;;5016223;28;20089;-75
2023/12/12 06:41:16;;;;;;;4.75;1.30;;;7.70;99.90;;;;;;5029624;28;20037;-76
2023/12/12 06:43:42;;;;;;;5.32;1.50;;;7.70;99.90;;;;;;5005009;28;20034;-75
2023/12/12 06:46:08;;;;;;;11.88;2.33;;;7.80;99.90;;;;;;5023629;28;20022;-76
2023/12/12 06:48:36;;;;;;;7.13;2.45;;;7.80;99.90;;;;;;5022544;28;20022;-75
2023/12/12 06:51:14;;;;;;;8.57;1.85;;;7.90;99.90;;;;;;5022133;28;20025;-75
2023/12/12 06:53:40;;;;;;;9.82;3.78;;;7.90;99.90;;;;;;5024418;28;20103;-75
2023/12/12 06:56:07;;;;;;;6.80;1.50;;;8.00;99.90;;;;;;5017157;28;20470;-73
2023/12/12 06:58:33;;;;;;;4.35;1.67;;;8.10;99.90;;;;;;5019542;28;20080;-74
2023/12/12 07:00:59;;;;;;;7.38;2.08;;;8.10;99.90;;;;;;5024466;28;20056;-74
2023/12/12 07:03:24;;;;;;;3.63;1.13;;;8.10;99.90;;;;;;5028547;28;20474;-75
2023/12/12 07:05:51;;;;;;;9.73;1.55;;;8.10;99.90;;;;;;5013912;28;20553;-74
2023/12/12 07:08:19;;;;;;;4.80;1.73;;;8.20;99.90;;;;;;5013034;28;20022;-74
2023/12/12 07:10:46;;;;;;;5.13;1.23;;;8.20;99.90;;;;;;5012663;28;20034;-74
2023/12/12 07:13:12;;;;;;;6.32;1.75;;;8.30;99.90;;;;;;5009463;28;20030;-74
2023/12/12 07:15:39;;;;;;;4.22;1.25;;;8.30;99.90;;;;;;5027771;28;20431;-69
2023/12/12 07:18:10;;;;;;;8.85;1.70;;;8.30;99.90;;;;;;5030905;28;20076;-68
2023/12/12 07:20:39;;;;;;;14.88;2.15;;;8.30;99.90;;;;;;5029002;28;20061;-70
2023/12/12 07:23:05;;;;;;;17.85;2.72;;;8.40;99.90;;;;;;5024560;28;20606;-70
2023/12/12 07:25:31;;;;;;;6.80;2.00;;;8.40;99.90;;;;;;5020790;28;20466;-70
2023/12/12 07:27:57;;;;;;;5.35;1.77;;;8.50;99.90;;;;;;5030099;28;20164;-74
2023/12/12 07:30:23;;;;;;;4.50;1.73;;;8.40;99.90;;;;;;5045616;28;20037;-74
2023/12/12 07:32:49;;;;;;;6.03;1.23;;;8.50;99.90;;;;;;5018123;28;20021;-74
2023/12/12 07:35:16;;;;;;;14.13;2.05;;;8.50;99.90;;;;;;5025752;28;20033;-73
2023/12/12 07:37:42;;;;;;;8.02;2.22;;;8.50;99.90;;;;;;5023354;28;20034;-73
2023/12/12 07:40:08;;;;;;;4.78;0.80;;;8.50;99.90;;;;;;5027800;28;20044;-73
2023/12/12 07:42:34;;;;;;;10.07;1.88;;;8.40;99.90;;;;;;5009172;28;20040;-72
2023/12/12 07:45:01;;;;;;;9.25;1.88;;;8.40;99.90;;;;;;5021593;28;20398;-74
2023/12/12 07:47:27;;;;;;;11.57;2.00;;;8.40;99.90;;;;;;5031555;28;20475;-74
2023/12/12 07:49:55;;;;;;;8.00;1.55;;;8.40;99.90;;;;;;5014725;28;20047;-75
2023/12/12 07:52:21;;;;;;;3.78;1.65;;;8.40;99.90;;;;;;5023049;28;20024;-74
2023/12/12 07:54:46;;;;;;;10.35;2.00;;;8.40;99.90;;;;;;5020569;28;20029;-73
2023/12/12 07:57:12;;;;;;;15.00;1.70;;;8.40;99.90;;;;;;5028485;28;20033;-74
2023/12/12 07:59:38;;;;;;;9.93;2.33;;;8.40;99.90;;;;;;5027485;28;20029;-73
2023/12/12 08:02:04;;;;;;;9.73;1.70;;;8.50;99.90;;;;;;5034685;28;20030;-75
2023/12/12 08:04:30;;;;;;;2.97;1.30;;;8.50;99.90;;;;;;5030902;28;20057;-74
2023/12/12 08:06:56;;;;;;;6.13;2.45;;;8.50;99.90;;;;;;5050090;28;20115;-75
2023/12/12 08:09:23;;;;;;;7.32;2.80;;;8.50;99.90;;;;;;5031722;28;20041;-74
2023/12/12 08:11:48;;;;;;;5.18;1.75;;;8.50;99.90;;;;;;5029471;28;20035;-74
2023/12/12 08:14:14;;;;;;;4.30;1.60;;;8.50;99.90;;;;;;5022158;28;20117;-74
2023/12/12 08:16:40;;;;;;;7.82;1.63;;;8.60;99.90;;;;;;5044813;28;20121;-75
2023/12/12 08:19:06;;;;;;;3.47;1.60;;;8.60;99.90;;;;;;5024481;28;20120;-75
2023/12/12 08:21:31;;;;;;;9.35;1.80;;;8.70;99.90;;;;;;5028816;28;20036;-75
2023/12/12 08:23:57;;;;;;;6.03;2.17;;;8.70;99.90;;;;;;5033076;28;20099;-74
2023/12/12 08:26:23;;;;;;;6.28;2.10;;;8.70;99.90;;;;;;5022438;28;20076;-74
2023/12/12 08:28:49;;;;;;;7.45;2.35;;;8.70;99.90;;;;;;5047424;28;20034;-75
2023/12/12 08:31:15;;;;;;;9.38;2.20;;;8.70;99.90;;;;;;5021977;28;20044;-74
2023/12/12 08:33:42;;;;;;;6.95;2.33;;;8.70;99.90;;;;;;5032561;28;20489;-74
2023/12/12 08:36:10;;;;;;;4.38;2.65;;;8.70;99.90;;;;;;5024564;28;20025;-74
2023/12/12 08:38:37;;;;;;;6.68;1.60;;;8.70;99.90;;;;;;5045640;28;20031;-75
2023/12/12 08:41:03;;;;;;;5.20;2.25;;;8.70;99.90;;;;;;5025175;28;20021;-74
2023/12/12 08:43:29;;;;;;;5.38;2.13;;;8.80;99.90;;;;;;5023407;28;20084;-74
2023/12/12 08:45:55;;;;;;;7.93;1.40;;;8.80;99.90;;;;;;5028670;28;20487;-74
2023/12/12 08:48:23;;;;;;;4.47;2.33;;;8.80;99.90;;;;;;5022683;28;20112;-72
2023/12/12 08:50:50;;;;;;;7.53;2.03;;;8.80;99.90;;;;;;5034989;28;20019;-74
2023/12/12 08:53:17;;;;;;;3.45;1.88;;;8.90;99.90;;;;;;5032752;28;20120;-74
2023/12/12 08:55:42;;;;;;;9.48;2.85;;;8.90;99.90;;;;;;5002995;28;20038;-74
2023/12/12 08:58:08;;;;;;;2.95;1.52;;;8.90;99.90;;;;;;5012282;28;20083;-74
2023/12/12 09:00:34;;;;;;;6.53;1.92;;;8.90;99.90;;;;;;5023050;28;20104;-74
2023/12/12 09:03:00;;;;;;;9.55;2.78;;;8.90;99.90;;;;;;5028308;28;20033;-74
2023/12/12 09:05:25;;;;;;;13.43;1.95;;;8.90;99.90;;;;;;5024566;28;20506;-74
2023/12/12 09:07:51;;;;;;;5.68;1.58;;;8.90;99.90;;;;;;5017913;28;20025;-74
2023/12/12 09:10:17;;;;;;;5.82;2.28;;;8.80;99.90;;;;;;5025053;28;20049;-74
2023/12/12 09:12:43;;;;;;;9.32;2.38;;;8.80;99.90;;;;;;5011121;28;20036;-74
2023/12/12 09:15:09;;;;;;;12.30;1.80;;;8.80;99.90;;;;;;5019489;28;20030;-75
2023/12/12 09:17:35;;;;;;;3.63;1.65;;;8.80;99.90;;;;;;5039362;28;20486;-74
2023/12/12 09:20:01;;;;;;;9.15;2.00;;;8.80;99.90;;;;;;5011540;28;20038;-74
2023/12/12 09:22:27;;;;;;;5.78;2.13;;;8.80;99.90;;;;;;5017661;28;20752;-74
2023/12/12 09:24:54;;;;;;;3.50;1.90;;;8.80;99.90;;;;;;5009792;28;20026;-74
2023/12/12 09:27:20;;;;;;;2.53;1.65;;;8.80;99.90;;;;;;5013069;28;20040;-74
2023/12/12 09:29:46;;;;;;;3.33;1.65;;;8.90;99.90;;;;;;5018112;28;20029;-74
2023/12/12 09:32:12;;;;;;;14.85;2.00;;;8.90;99.90;;;;;;5019408;28;20033;-73
2023/12/12 09:34:38;;;;;;;10.27;1.67;;;9.00;99.90;;;;;;5026960;28;20493;-73
2023/12/12 09:37:04;;;;;;;3.33;1.95;;;8.90;99.90;;;;;;5021548;28;20432;-73
2023/12/12 09:39:30;;;;;;;3.20;1.83;;;9.00;99.90;;;;;;5003913;28;20033;-73
2023/12/12 09:42:00;;;;;;;6.57;1.15;;;9.00;99.90;;;;;;5013696;28;20044;-73
2023/12/12 09:44:31;;;;;;;3.97;1.52;;;9.00;99.90;;;;;;5017937;28;20034;-73
2023/12/12 09:46:57;;;;;;;;;;;9.10;99.90;;;;;;5016984;28;20090;-73
2023/12/12 09:49:26;;;;;;;8.75;1.05;;;9.10;99.90;;;;;;5023288;28;19913;-73
2023/12/12 09:51:52;;;;;;;2.17;1.30;;;9.10;99.90;;;;;;5003392;28;20464;-74
2023/12/12 09:54:20;;;;;;;4.88;1.27;;;9.10;99.90;;;;;;5022287;28;20040;-75
2023/12/12 09:56:48;;;;;;;3.90;0.93;;;9.10;99.90;;;;;;5040416;28;20021;-75
2023/12/12 09:59:14;;;;;;;2.00;0.95;;;9.10;99.90;;;;;;5011653;28;20132;-75
2023/12/12 10:01:45;;;;;;;2.63;1.02;;;9.10;99.90;;;;;;5027323;28;20104;-75
2023/12/12 10:04:13;;;;;;;3.10;1.00;;;9.10;99.90;;;;;;5010486;28;20128;-75
2023/12/12 10:06:49;;;;;;;1.45;1.10;;;9.10;99.90;;;;;;5023324;28;20037;-75
2023/12/12 10:09:15;;;;;;;7.88;1.83;;;9.10;99.90;;;;;;5022402;28;20045;-75
2023/12/12 10:11:41;;;;;;;11.80;1.50;;;9.20;99.90;;;;;;5028687;28;20436;-72
2023/12/12 10:14:08;;;;;;;3.22;1.58;;;9.20;99.90;;;;;;5021301;28;20033;-74
2023/12/12 10:16:37;;;;;;;10.43;1.85;;;9.20;99.90;;;;;;5012221;28;20057;-75
2023/12/12 10:19:03;;;;;;;6.65;2.00;;;9.30;99.90;;;;;;5009411;28;20029;-74
2023/12/12 10:21:29;;;;;;;3.05;1.55;;;9.30;99.90;;;;;;5019819;28;20091;-74
2023/12/12 10:23:55;;;;;;;4.82;1.60;;;9.30;99.90;;;;;;5009897;28;20033;-74
2023/12/12 10:26:30;;;;;;;3.75;1.70;;;9.30;99.90;;;;;;5024824;28;20049;-74
2023/12/12 10:28:57;;;;;;;3.42;2.30;;;9.40;99.90;;;;;;5015913;28;20061;-74
2023/12/12 10:31:23;;;;;;;4.00;1.50;;;9.50;99.90;;;;;;5024308;28;20116;-74
2023/12/12 10:33:50;;;;;;;4.85;2.15;;;9.50;99.90;;;;;;5028799;28;20029;-74
2023/12/12 10:36:15;;;;;;;4.95;1.83;;;9.60;99.90;;;;;;5019625;28;20025;-74
2023/12/12 10:38:41;;;;;;;4.32;2.08;;;9.60;99.90;;;;;;5025921;28;20029;-74
2023/12/12 10:41:18;;;;;;;2.38;1.33;;;9.70;99.90;;;;;;5016015;28;20045;-74
2023/12/12 10:43:46;;;;;;;8.38;2.13;;;9.70;99.90;;;;;;5017924;28;20494;-74
2023/12/12 10:46:14;;;;;;;5.22;2.20;;;9.70;99.90;;;;;;5005936;28;20046;-74
2023/12/12 10:48:52;;;;;;;6.95;1.98;;;9.70;99.90;;;;;;5011551;28;20022;-74
2023/12/12 10:51:18;;;;;;;2.22;1.48;;;9.70;99.90;;;;;;5025966;28;20040;-74
2023/12/12 10:53:51;;;;;;;9.80;2.20;;;9.80;99.90;;;;;;5012934;28;20091;-75
2023/12/12 10:56:17;;;;;;;8.10;2.25;;;9.90;99.90;;;;;;5018604;28;20153;-75
2023/12/12 10:58:44;;;;;;;8.63;1.77;;;10.00;99.90;;;;;;5014018;28;20458;-74
2023/12/12 11:01:13;;;;;;;15.93;3.03;;;10.00;99.90;;;;;;5016045;28;20095;-74
2023/12/12 11:03:40;;;;;;;5.85;1.80;;;9.90;99.90;;;;;;5019007;28;20037;-74
2023/12/12 11:06:08;;;;;;;10.57;1.75;;;9.90;99.90;;;;;;5017457;28;20026;-75
2023/12/12 11:08:35;;;;;;;4.10;1.17;;;9.90;99.90;;;;;;5019807;28;20117;-74
2023/12/12 11:11:07;;;;;;;2.05;1.33;;;9.90;99.90;;;;;;5022988;28;20306;-74
2023/12/12 11:13:36;;;;;;;6.75;1.65;;;9.90;99.90;;;;;;5025362;28;20395;-74
2023/12/12 11:16:04;;;;;;;8.35;1.75;;;9.80;99.90;;;;;;5022563;28;20036;-74
2023/12/12 11:18:31;;;;;;;1.40;0.95;;;9.80;99.90;;;;;;5030701;28;20068;-74
2023/12/12 11:20:56;;;;;;;3.00;1.05;;;9.80;99.90;;;;;;5026053;28;20500;-74
2023/12/12 11:23:54;;;;;;;4.45;2.00;;;9.80;99.90;;;;;;5030464;28;20029;-74
2023/12/12 11:26:26;;;;;;;5.38;1.13;;;9.70;99.90;;;;;;4993270;28;20048;-76
2023/12/12 11:28:55;;;;;;;3.55;1.60;;;9.60;99.90;;;;;;5028033;28;20525;-75
2023/12/12 11:31:26;;;;;;;2.03;1.35;;;9.60;99.90;;;;;;5028632;28;20070;-75
2023/12/12 11:34:12;;;;;;;1.73;1.30;;;9.50;99.90;;;;;;5022251;28;20032;-75
2023/12/12 11:36:58;;;;;;;1.65;0.98;;;9.40;99.90;;;;;;5023251;28;20049;-74
2023/12/12 11:39:34;;;;;;;7.20;1.40;;;9.40;99.90;;;;;;5018460;28;20046;-74
2023/12/12 11:42:15;;;;;;;2.97;1.20;;;9.40;99.90;;;;;;5022544;28;20021;-73
2023/12/12 11:44:55;;;;;;;5.28;1.00;;;9.40;99.90;;;;;;5019928;28;20030;-74
2023/12/12 11:47:27;;;;;;;4.20;1.13;;;9.40;99.90;;;;;;5028500;28;20129;-74
2023/12/12 11:50:25;;;;;;;8.15;1.85;;;9.40;99.90;;;;;;5012185;28;20029;-74
2023/12/12 11:52:51;;;;;;;8.45;1.85;;;9.40;99.90;;;;;;5005145;28;20119;-75
2023/12/12 11:55:23;;;;;;;5.20;1.35;;;9.40;99.90;;;;;;5022552;28;20072;-75
2023/12/12 11:57:49;;;;;;;3.80;1.00;;;9.40;99.90;;;;;;5010127;28;20069;-73
2023/12/12 12:00:17;;;;;;;2.15;1.23;;;9.40;99.90;;;;;;5015045;28;20548;-73
2023/12/12 12:02:43;;;;;;;1.45;1.15;;;9.30;99.90;;;;;;5026840;28;20084;-73
2023/12/12 12:05:09;;;;;;;3.08;1.20;;;9.40;99.90;;;;;;5029279;28;20021;-73
2023/12/12 12:07:38;;;;;;;9.68;1.80;;;9.40;99.90;;;;;;5022199;28;20048;-73
2023/12/12 12:10:05;;;;;;;2.40;1.17;;;9.40;99.90;;;;;;5016561;28;20433;-74
2023/12/12 12:12:31;;;;;;;2.20;1.17;;;9.40;99.90;;;;;;5015638;28;20649;-74
2023/12/12 12:15:09;;;;;;;5.13;1.13;;;9.40;99.90;;;;;;5002312;28;20083;-76
2023/12/12 12:17:36;;;;;;;5.18;1.63;;;9.40;99.90;;;;;;5025457;28;20060;-76
2023/12/12 12:20:03;;;;;;;4.80;1.42;;;9.40;99.90;;;;;;5019028;28;20444;-76
2023/12/12 12:22:30;;;;;;;4.35;1.83;;;9.40;99.90;;;;;;5002304;28;20052;-73
2023/12/12 12:24:56;;;;;;;6.80;1.42;;;9.40;99.90;;;;;;5015910;28;20510;-73
2023/12/12 12:27:22;;;;;;;5.22;1.40;;;9.40;99.90;;;;;;5024669;28;20472;-75
2023/12/12 12:30:04;;;;;;;2.72;1.38;;;9.60;99.90;;;;;;5029865;28;20116;-76
2023/12/12 12:32:29;;;;;;;3.95;1.20;;;9.60;99.90;;;;;;5025989;28;20029;-73
2023/12/12 12:35:08;;;;;;;9.98;1.80;;;9.60;99.90;;;;;;5021044;28;20030;-73
2023/12/12 12:37:36;;;;;;;6.75;1.20;;;9.80;99.90;;;;;;5029400;28;20072;-73
2023/12/12 12:40:04;;;;;;;8.13;1.33;;;9.80;99.90;;;;;;5025634;28;20021;-73
2023/12/12 12:42:38;;;;;;;3.30;1.75;;;9.90;99.90;;;;;;5031438;28;20040;-74
2023/12/12 12:45:08;;;;;;;2.63;1.25;;;10.00;99.90;;;;;;5031947;28;20100;-73
2023/12/12 12:47:34;;;;;;;5.25;1.33;;;10.00;99.90;;;;;;5032342;28;20412;-73
2023/12/12 12:50:03;;;;;;;2.50;1.17;;;10.10;99.90;;;;;;5032422;28;20540;-73
2023/12/12 12:52:29;;;;;;;6.50;1.63;;;10.10;99.90;;;;;;5022998;28;20048;-73
2023/12/12 12:54:55;;;;;;;8.82;1.52;;;10.10;99.90;;;;;;5024136;28;20030;-74